Time;durP1;ratioP1;P1;durP2;ratioP2;P2;SDS_P1;SDS_P2;PMS_P1;PMS_P2;Temp;Humidity;BMP_temperature;BMP_pressure;BME280_temperature;BME280_humidity;BME280_pressure;Samples;Min_cycle;Max_cycle;Signal;HPM_P1;HPM_P2
2023/05/14 00:01:30;;;;;;;;;;;15.80;67.10;;;;;;5072529;28;19923;-30
2023/05/14 00:03:56;;;;;;;;;;;15.70;67.10;;;;;;5072486;28;19912;-31
2023/05/14 00:06:21;;;;;;;;;;;15.70;67.40;;;;;;5072507;28;20368;-29
2023/05/14 00:08:47;;;;;;;;;;;15.60;67.60;;;;;;5072185;28;19981;-33
2023/05/14 00:11:12;;;;;;;;;;;15.50;67.80;;;;;;5072430;28;19912;-31
2023/05/14 00:13:38;;;;;;;;;;;15.50;68.00;;;;;;5072431;28;19913;-30
2023/05/14 00:16:03;;;;;;;;;;;15.40;68.10;;;;;;5072448;28;20316;-33
2023/05/14 00:18:29;;;;;;;;;;;15.30;68.70;;;;;;5072366;28;19913;-31
2023/05/14 00:20:54;;;;;;;;;;;15.30;68.50;;;;;;5072143;28;19982;-30
2023/05/14 00:23:20;;;;;;;;;;;15.20;68.60;;;;;;5072621;28;19919;-42
2023/05/14 00:25:46;;;;;;;;;;;15.20;69.10;;;;;;5072288;28;20176;-30
2023/05/14 00:28:11;;;;;;;;;;;15.10;69.00;;;;;;5072029;28;20402;-33
2023/05/14 00:30:37;;;;;;;;;;;15.10;69.10;;;;;;5071976;28;19917;-31
2023/05/14 00:33:02;;;;;;;;;;;15.00;69.30;;;;;;5072191;28;19956;-33
2023/05/14 00:35:28;;;;;;;;;;;15.00;69.50;;;;;;5071334;28;19912;-33
2023/05/14 00:37:53;;;;;;;;;;;14.90;69.10;;;;;;5072008;28;19912;-29
2023/05/14 00:40:19;;;;;;;;;;;14.90;69.20;;;;;;5072259;28;20284;-31
2023/05/14 00:42:45;;;;;;;;;;;14.90;69.20;;;;;;5071903;28;20053;-29
2023/05/14 00:45:10;;;;;;;;;;;14.90;69.10;;;;;;5071763;28;19912;-29
2023/05/14 00:47:38;;;;;;;;;;;14.90;69.10;;;;;;5071696;28;19913;-31
2023/05/14 00:50:03;;;;;;;;;;;14.90;69.20;;;;;;5071701;28;19943;-32
2023/05/14 00:52:29;;;;;;;;;;;14.90;69.30;;;;;;5071677;28;20326;-30
2023/05/14 00:54:55;;;;;;;;;;;14.90;69.40;;;;;;5071717;28;19942;-30
2023/05/14 00:57:21;;;;;;;;;;;14.90;69.40;;;;;;5071772;28;19923;-29
2023/05/14 00:59:46;;;;;;;;;;;14.90;69.40;;;;;;5071717;28;19917;-29
2023/05/14 01:02:12;;;;;;;;;;;14.90;69.50;;;;;;5071667;28;20002;-30
2023/05/14 01:04:38;;;;;;;;;;;14.80;69.70;;;;;;5071471;28;19912;-29
2023/05/14 01:07:19;;;;;;;;;;;14.90;69.70;;;;;;5071586;28;19913;-34
2023/05/14 01:10:07;;;;;;;;;;;14.90;69.50;;;;;;5071359;28;20426;-29
2023/05/14 01:12:39;;;;;;;;;;;14.90;69.40;;;;;;5071428;28;19920;-29
2023/05/14 01:15:10;;;;;;;;;;;14.90;69.40;;;;;;5071518;28;19967;-29
2023/05/14 01:17:41;;;;;;;;;;;14.90;69.40;;;;;;5071483;28;19916;-30
2023/05/14 01:20:08;;;;;;;;;;;14.90;69.30;;;;;;5071698;28;19916;-32
2023/05/14 01:22:34;;;;;;;;;;;14.90;69.20;;;;;;5071423;28;19968;-29
2023/05/14 01:24:59;;;;;;;;;;;14.90;69.10;;;;;;5071485;28;19925;-29
2023/05/14 01:27:30;;;;;;;;;;;15.00;69.00;;;;;;5071330;28;19913;-30
2023/05/14 01:30:10;;;;;;;;;;;15.00;69.00;;;;;;5071110;28;19921;-31
2023/05/14 01:32:35;;;;;;;;;;;15.00;68.90;;;;;;5071130;28;19923;-29
2023/05/14 01:35:01;;;;;;;;;;;15.00;68.90;;;;;;5071328;28;19913;-33
2023/05/14 01:37:28;;;;;;;;;;;15.00;68.90;;;;;;5071202;28;19916;-31
2023/05/14 01:39:55;;;;;;;;;;;15.00;68.90;;;;;;5071133;28;19916;-32
2023/05/14 01:42:20;;;;;;;;;;;14.90;68.90;;;;;;5071134;28;19912;-29
2023/05/14 01:44:46;;;;;;;;;;;14.90;69.00;;;;;;5070943;28;20375;-32
2023/05/14 01:47:11;;;;;;;;;;;14.90;69.10;;;;;;5072930;28;20368;-29
2023/05/14 01:49:37;;;;;;;;;;;14.80;69.20;;;;;;5073806;28;19912;-29
2023/05/14 01:52:03;;;;;;;;;;;14.80;69.30;;;;;;5075076;28;19912;-29
2023/05/14 01:54:28;;;;;;;;;;;14.70;69.40;;;;;;5074973;28;19912;-32
2023/05/14 01:56:54;;;;;;;;;;;14.70;69.40;;;;;;5075028;28;19913;-29
2023/05/14 01:59:19;;;;;;;;;;;14.70;69.50;;;;;;5074886;28;20411;-31
2023/05/14 02:01:44;;;;;;;;;;;14.60;69.50;;;;;;5074876;28;19916;-30
2023/05/14 02:04:10;;;;;;;;;;;14.60;69.70;;;;;;5074683;28;19932;-29
2023/05/14 02:06:35;;;;;;;;;;;14.60;69.70;;;;;;5074543;28;19920;-31
2023/05/14 02:09:02;;;;;;;;;;;14.50;69.70;;;;;;5074913;28;19959;-31
2023/05/14 02:11:27;;;;;;;;;;;14.50;69.70;;;;;;5074593;28;20438;-29
2023/05/14 02:13:52;;;;;;;;;;;14.50;69.80;;;;;;5074732;28;19912;-32
2023/05/14 02:16:18;;;;;;;;;;;14.50;69.80;;;;;;5074575;28;19913;-31
2023/05/14 02:18:43;;;;;;;;;;;14.40;69.80;;;;;;5074587;28;19912;-29
2023/05/14 02:21:09;;;;;;;;;;;14.40;69.90;;;;;;5074741;28;19924;-29
2023/05/14 02:23:35;;;;;;;;;;;14.40;69.90;;;;;;5074483;28;19916;-33
2023/05/14 02:26:00;;;;;;;;;;;14.40;70.00;;;;;;5074502;28;19999;-32
2023/05/14 02:28:26;;;;;;;;;;;14.40;70.10;;;;;;5074200;28;19919;-30
2023/05/14 02:30:51;;;;;;;;;;;14.40;70.20;;;;;;5074345;28;20376;-29
2023/05/14 02:33:16;;;;;;;;;;;14.40;70.20;;;;;;5074025;28;19912;-29
2023/05/14 02:35:42;;;;;;;;;;;14.30;70.20;;;;;;5074289;28;19995;-30
2023/05/14 02:38:07;;;;;;;;;;;14.30;70.30;;;;;;5072701;28;19961;-30
2023/05/14 02:40:33;;;;;;;;;;;14.30;70.40;;;;;;5074120;28;19967;-29
2023/05/14 02:42:58;;;;;;;;;;;14.20;70.40;;;;;;5072727;28;19912;-29
2023/05/14 02:45:24;;;;;;;;;;;14.20;70.50;;;;;;5074103;28;19912;-30
2023/05/14 02:47:49;;;;;;;;;;;14.20;71.20;;;;;;5074018;28;20003;-32
2023/05/14 02:50:15;;;;;;;;;;;14.20;70.70;;;;;;5073857;28;19923;-29
2023/05/14 02:52:40;;;;;;;;;;;14.10;70.80;;;;;;5074069;28;19913;-30
2023/05/14 02:55:06;;;;;;;;;;;14.10;70.90;;;;;;5073900;28;19920;-30
2023/05/14 02:57:32;;;;;;;;;;;14.00;71.10;;;;;;5073351;28;19912;-29
2023/05/14 02:59:57;;;;;;;;;;;14.00;71.20;;;;;;5073637;28;19963;-32
2023/05/14 03:02:23;;;;;;;;;;;14.00;71.30;;;;;;5073710;28;19917;-28
2023/05/14 03:04:49;;;;;;;;;;;14.10;71.40;;;;;;5073838;28;20016;-29
2023/05/14 03:07:14;;;;;;;;;;;14.00;71.30;;;;;;5072554;28;20257;-31
2023/05/14 03:09:40;;;;;;;;;;;14.00;71.40;;;;;;5073755;28;19966;-30
2023/05/14 03:12:06;;;;;;;;;;;14.00;71.40;;;;;;5073670;28;19912;-30
2023/05/14 03:14:31;;;;;;;;;;;14.00;71.40;;;;;;5073821;28;19919;-31
2023/05/14 03:16:57;;;;;;;;;;;14.00;71.40;;;;;;5073481;28;20330;-31
2023/05/14 03:19:22;;;;;;;;;;;14.00;71.50;;;;;;5073355;28;19912;-30
2023/05/14 03:21:48;;;;;;;;;;;14.00;71.50;;;;;;5073369;28;19919;-32
2023/05/14 03:24:14;;;;;;;;;;;13.90;71.60;;;;;;5073216;28;19912;-29
2023/05/14 03:26:40;;;;;;;;;;;13.90;71.70;;;;;;5073223;28;20487;-31
2023/05/14 03:29:05;;;;;;;;;;;13.80;71.80;;;;;;5073097;28;20070;-36
2023/05/14 03:31:30;;;;;;;;;;;13.80;71.80;;;;;;5073217;28;20372;-29
2023/05/14 03:33:56;;;;;;;;;;;13.80;71.80;;;;;;5073277;28;19935;-32
2023/05/14 03:36:21;;;;;;;;;;;13.80;71.90;;;;;;5073167;28;19912;-29
2023/05/14 03:38:47;;;;;;;;;;;13.80;72.00;;;;;;5072944;28;19912;-29
2023/05/14 03:41:12;;;;;;;;;;;13.80;72.00;;;;;;5072910;28;19978;-29
2023/05/14 03:43:38;;;;;;;;;;;13.70;72.10;;;;;;5072980;28;20295;-32
2023/05/14 03:46:03;;;;;;;;;;;13.70;72.30;;;;;;5072875;28;19923;-33
2023/05/14 03:48:29;;;;;;;;;;;13.60;72.40;;;;;;5072353;28;19913;-38
2023/05/14 03:50:54;;;;;;;;;;;13.60;72.50;;;;;;5072808;28;20335;-30
2023/05/14 03:53:20;;;;;;;;;;;13.60;72.60;;;;;;5072858;28;20006;-29
2023/05/14 03:55:45;;;;;;;;;;;13.50;72.70;;;;;;5072537;28;19916;-29
2023/05/14 03:58:12;;;;;;;;;;;13.60;72.70;;;;;;5072571;28;19950;-38
2023/05/14 04:00:41;;;;;;;;;;;13.50;72.70;;;;;;5072469;28;19920;-31
2023/05/14 04:03:07;;;;;;;;;;;13.50;72.90;;;;;;5072625;28;20058;-29
2023/05/14 04:05:33;;;;;;;;;;;13.40;72.90;;;;;;5071291;28;20415;-29
2023/05/14 04:07:58;;;;;;;;;;;13.40;73.30;;;;;;5072554;28;19956;-32
2023/05/14 04:10:23;;;;;;;;;;;13.40;73.20;;;;;;5071600;28;19913;-31
2023/05/14 04:12:49;;;;;;;;;;;13.40;73.20;;;;;;5072392;28;20003;-30
2023/05/14 04:15:14;;;;;;;;;;;13.40;73.20;;;;;;5072439;28;19916;-30
2023/05/14 04:17:40;;;;;;;;;;;13.30;73.30;;;;;;5072281;28;20308;-29
2023/05/14 04:20:06;;;;;;;;;;;13.30;73.30;;;;;;5072244;28;19942;-29
2023/05/14 04:22:31;;;;;;;;;;;13.40;73.50;;;;;;5072107;28;19920;-32
2023/05/14 04:24:57;;;;;;;;;;;13.40;73.60;;;;;;5072246;28;19912;-30
2023/05/14 04:27:22;;;;;;;;;;;13.30;73.50;;;;;;5072100;28;20015;-33
2023/05/14 04:29:48;;;;;;;;;;;13.30;73.60;;;;;;5072051;28;20318;-29
2023/05/14 04:32:13;;;;;;;;;;;13.30;73.70;;;;;;5072194;28;19998;-29
2023/05/14 04:34:40;;;;;;;;;;;13.30;73.80;;;;;;5071980;28;20367;-31
2023/05/14 04:37:05;;;;;;;;;;;13.30;73.80;;;;;;5072103;28;19916;-30
2023/05/14 04:39:31;;;;;;;;;;;13.30;73.80;;;;;;5070634;28;20020;-29
2023/05/14 04:41:56;;;;;;;;;;;13.30;73.90;;;;;;5072011;28;19942;-29
2023/05/14 04:44:21;;;;;;;;;;;13.30;74.00;;;;;;5071863;28;19912;-29
2023/05/14 04:46:47;;;;;;;;;;;13.30;74.00;;;;;;5071861;28;20010;-31
2023/05/14 04:49:12;;;;;;;;;;;13.30;74.10;;;;;;5071904;28;20380;-29
2023/05/14 04:51:38;;;;;;;;;;;13.30;74.10;;;;;;5071825;28;19927;-29
2023/05/14 04:54:03;;;;;;;;;;;13.30;74.10;;;;;;5071837;28;19912;-28
2023/05/14 04:56:29;;;;;;;;;;;13.30;74.10;;;;;;5071818;28;20307;-30
2023/05/14 04:58:54;;;;;;;;;;;13.30;74.10;;;;;;5072160;28;19923;-31
2023/05/14 05:01:22;;;;;;;;;;;13.40;74.10;;;;;;5071601;28;19916;-30
2023/05/14 05:03:47;;;;;;;;;;;13.50;73.90;;;;;;5071594;28;19912;-31
2023/05/14 05:06:13;;;;;;;;;;;13.60;73.80;;;;;;5071675;28;19912;-29
2023/05/14 05:08:38;;;;;;;;;;;13.70;74.40;;;;;;5071664;28;19924;-29
2023/05/14 05:11:04;;;;;;;;;;;13.70;73.70;;;;;;5071640;28;19916;-29
2023/05/14 05:13:31;;;;;;;;;;;13.70;73.80;;;;;;5071443;28;19916;-30
2023/05/14 05:15:56;;;;;;;;;;;13.70;73.90;;;;;;5071602;28;19952;-29
2023/05/14 05:18:22;;;;;;;;;;;13.70;73.90;;;;;;5071433;28;19951;-28
2023/05/14 05:20:47;;;;;;;;;;;13.70;73.90;;;;;;5071154;28;20015;-29
2023/05/14 05:23:13;;;;;;;;;;;13.80;73.80;;;;;;5071472;28;19944;-35
2023/05/14 05:25:38;;;;;;;;;;;13.90;73.70;;;;;;5071440;28;19913;-30
2023/05/14 05:28:03;;;;;;;;;;;13.90;73.60;;;;;;5071522;28;19912;-29
2023/05/14 05:30:29;;;;;;;;;;;13.90;73.50;;;;;;5071323;28;19920;-29
2023/05/14 05:32:56;;;;;;;;;;;14.00;73.50;;;;;;5070235;28;19916;-29
2023/05/14 05:35:21;;;;;;;;;;;14.00;73.70;;;;;;5071452;28;19920;-31
2023/05/14 05:37:47;;;;;;;;;;;14.00;73.60;;;;;;5071465;28;20380;-29
2023/05/14 05:40:13;;;;;;;;;;;14.00;73.60;;;;;;5071288;28;19966;-29
2023/05/14 05:42:39;;;;;;;;;;;14.00;73.70;;;;;;5071399;28;19912;-30
2023/05/14 05:45:05;;;;;;;;;;;14.00;73.90;;;;;;5071249;28;19962;-30
2023/05/14 05:47:30;;;;;;;;;;;14.00;74.00;;;;;;5071367;28;19913;-30
2023/05/14 05:49:55;;;;;;;;;;;14.00;73.90;;;;;;5071227;28;19973;-31
2023/05/14 05:52:21;;;;;;;;;;;14.00;73.90;;;;;;5071149;28;19913;-30
2023/05/14 05:54:46;;;;;;;;;;;14.00;73.90;;;;;;5071187;28;19916;-31
2023/05/14 05:57:12;;;;;;;;;;;14.10;73.80;;;;;;5071286;28;19963;-32
2023/05/14 05:59:37;;;;;;;;;;;14.20;73.90;;;;;;5071103;28;19912;-32
2023/05/14 06:02:03;;;;;;;;;;;14.20;73.80;;;;;;5071624;28;19916;-29
2023/05/14 06:04:29;;;;;;;;;;;14.20;73.70;;;;;;5071043;28;20125;-31
2023/05/14 06:06:54;;;;;;;;;;;14.30;73.70;;;;;;5071293;28;19912;-29
2023/05/14 06:09:20;;;;;;;;;;;14.30;73.70;;;;;;5071117;28;20042;-29
2023/05/14 06:11:45;;;;;;;;;;;14.40;73.90;;;;;;5071147;28;20371;-30
2023/05/14 06:14:11;;;;;;;;;;;14.40;73.70;;;;;;5071027;28;20364;-31
2023/05/14 06:16:36;;;;;;;;;;;14.50;73.70;;;;;;5071004;28;19912;-33
2023/05/14 06:19:01;;;;;;;;;;;14.60;73.60;;;;;;5070964;28;19912;-30
2023/05/14 06:21:27;;;;;;;;;;;14.60;73.70;;;;;;5070930;28;19927;-30
2023/05/14 06:23:53;;;;;;;;;;;14.70;73.40;;;;;;5070929;28;20062;-29
2023/05/14 06:26:18;;;;;;;;;;;14.80;73.30;;;;;;5070873;28;20291;-31
2023/05/14 06:28:43;;;;;;;;;;;14.90;73.10;;;;;;5070772;28;20373;-30
2023/05/14 06:31:09;;;;;;;;;;;15.00;73.10;;;;;;5070848;28;19939;-31
2023/05/14 06:33:35;;;;;;;;;;;15.00;72.80;;;;;;5073042;28;19916;-30
2023/05/14 06:36:02;;;;;;;;;;;15.20;72.70;;;;;;5074795;28;19938;-29
2023/05/14 06:38:28;;;;;;;;;;;15.20;72.60;;;;;;5074445;28;20069;-30
2023/05/14 06:40:53;;;;;;;;;;;15.30;72.70;;;;;;5074302;28;20007;-30
2023/05/14 06:43:19;;;;;;;;;;;15.40;72.50;;;;;;5074304;28;20046;-30
2023/05/14 06:45:48;;;;;;;;;;;15.50;72.30;;;;;;5074489;28;20053;-31
2023/05/14 06:48:14;;;;;;;;;;;15.50;72.20;;;;;;5074249;28;19919;-34
2023/05/14 06:50:39;;;;;;;;;;;15.60;72.00;;;;;;5072839;28;19913;-30
2023/05/14 06:53:05;;;;;;;;;;;15.70;72.00;;;;;;5074061;28;20009;-30
2023/05/14 06:55:30;;;;;;;;;;;15.80;71.80;;;;;;5074017;28;19912;-32
2023/05/14 06:57:56;;;;;;;;;;;15.90;71.70;;;;;;5074050;28;19912;-34
2023/05/14 07:00:21;;;;;;;;;;;16.00;71.60;;;;;;5073931;28;20317;-30
2023/05/14 07:02:47;;;;;;;;;;;16.00;71.40;;;;;;5074105;28;19912;-30
2023/05/14 07:05:12;;;;;;;;;;;16.20;71.20;;;;;;5074140;28;19913;-31
2023/05/14 07:07:38;;;;;;;;;;;16.30;71.00;;;;;;5073915;28;19913;-34
2023/05/14 07:10:03;;;;;;;;;;;16.30;70.90;;;;;;5073716;28;19958;-31
2023/05/14 07:12:29;;;;;;;;;;;16.40;70.80;;;;;;5073678;28;20004;-30
2023/05/14 07:14:55;;;;;;;;;;;16.50;70.70;;;;;;5074085;28;20317;-30
2023/05/14 07:17:21;;;;;;;;;;;16.50;70.50;;;;;;5073738;28;20269;-33
2023/05/14 07:19:46;;;;;;;;;;;16.60;70.50;;;;;;5073705;28;19944;-31
2023/05/14 07:22:12;;;;;;;;;;;16.60;70.30;;;;;;5073674;28;19909;-30
2023/05/14 07:24:37;;;;;;;;;;;16.60;70.20;;;;;;5073752;28;19908;-31
2023/05/14 07:27:03;;;;;;;;;;;16.60;70.20;;;;;;5073546;28;20409;-29
2023/05/14 07:29:29;;;;;;;;;;;16.70;70.20;;;;;;5073356;28;20578;-30
2023/05/14 07:31:54;;;;;;;;;;;16.70;70.20;;;;;;5073472;28;19991;-34
2023/05/14 07:34:20;;;;;;;;;;;16.70;70.10;;;;;;5072038;28;19908;-30
2023/05/14 07:36:45;;;;;;;;;;;16.70;70.00;;;;;;5073432;28;19919;-31
2023/05/14 07:39:11;;;;;;;;;;;16.80;70.00;;;;;;5073647;28;19948;-30
2023/05/14 07:41:36;;;;;;;;;;;16.90;70.00;;;;;;5073286;28;19938;-30
2023/05/14 07:44:02;;;;;;;;;;;17.00;70.00;;;;;;5072960;28;20368;-32
2023/05/14 07:46:27;;;;;;;;;;;17.00;69.90;;;;;;5073169;28;20431;-31
2023/05/14 07:48:53;;;;;;;;;;;17.10;70.00;;;;;;5073140;28;20326;-30
2023/05/14 07:51:18;;;;;;;;;;;17.10;69.80;;;;;;5073360;28;19915;-30
2023/05/14 07:53:44;;;;;;;;;;;17.20;69.70;;;;;;5073347;28;19964;-31
2023/05/14 07:56:09;;;;;;;;;;;17.30;69.70;;;;;;5073053;28;19909;-31
2023/05/14 07:58:35;;;;;;;;;;;17.30;69.50;;;;;;5073422;28;20268;-33
2023/05/14 08:01:03;;;;;;;;;;;17.40;69.20;;;;;;5072938;28;19912;-33
2023/05/14 08:03:28;;;;;;;;;;;17.50;69.90;;;;;;5073043;28;19983;-33
2023/05/14 08:05:53;;;;;;;;;;;17.60;69.10;;;;;;5071756;28;20000;-31
2023/05/14 08:08:19;;;;;;;;;;;17.60;68.90;;;;;;5072823;28;20011;-29
2023/05/14 08:10:44;;;;;;;;;;;17.70;68.60;;;;;;5072663;28;19913;-33
2023/05/14 08:13:10;;;;;;;;;;;17.80;68.30;;;;;;5072618;28;20011;-29
2023/05/14 08:15:36;;;;;;;;;;;17.90;67.90;;;;;;5072509;28;19958;-30
2023/05/14 08:18:02;;;;;;;;;;;17.90;67.70;;;;;;5072604;28;19955;-32
2023/05/14 08:20:28;;;;;;;;;;;18.00;67.80;;;;;;5072383;28;19916;-29
2023/05/14 08:22:54;;;;;;;;;;;18.10;67.40;;;;;;5072489;28;19908;-29
2023/05/14 08:25:20;;;;;;;;;;;18.10;67.30;;;;;;5072340;28;19915;-32
2023/05/14 08:27:45;;;;;;;;;;;18.20;66.90;;;;;;5072700;28;19912;-29
2023/05/14 08:30:11;;;;;;;;;;;18.30;67.00;;;;;;5072208;28;19963;-31
2023/05/14 08:32:37;;;;;;;;;;;18.50;66.90;;;;;;5072392;28;19915;-32
2023/05/14 08:35:03;;;;;;;;;;;18.60;66.70;;;;;;5072212;28;19908;-31
2023/05/14 08:37:28;;;;;;;;;;;18.70;66.60;;;;;;5072403;28;19995;-33
2023/05/14 08:39:55;;;;;;;;;;;18.80;66.40;;;;;;5070837;28;20359;-32
2023/05/14 08:42:23;;;;;;;;;;;18.90;66.00;;;;;;5072041;28;20057;-33
2023/05/14 08:44:49;;;;;;;;;;;19.00;65.60;;;;;;5072018;28;19909;-30
2023/05/14 08:47:16;;;;;;;;;;;19.00;65.50;;;;;;5072009;28;20003;-29
2023/05/14 08:49:43;;;;;;;;;;;19.10;65.40;;;;;;5071972;28;20470;-29
2023/05/14 08:52:09;;;;;;;;;;;19.20;65.60;;;;;;5071994;28;19991;-33
2023/05/14 08:54:35;;;;;;;;;;;19.30;64.90;;;;;;5072000;28;20372;-29
2023/05/14 08:57:04;;;;;;;;;;;19.30;65.30;;;;;;5071422;28;19909;-30
2023/05/14 08:59:29;;;;;;;;;;;19.40;64.40;;;;;;5071849;28;19909;-31
2023/05/14 09:01:55;;;;;;;;;;;19.50;63.60;;;;;;5071805;28;19916;-30
2023/05/14 09:04:22;;;;;;;;;;;19.60;63.80;;;;;;5071740;28;19909;-32
2023/05/14 09:06:48;;;;;;;;;;;19.70;63.60;;;;;;5071936;28;19973;-30
2023/05/14 09:09:13;;;;;;;;;;;19.80;63.30;;;;;;5071718;28;19909;-30
2023/05/14 09:11:39;;;;;;;;;;;19.90;62.70;;;;;;5071740;28;19915;-29
2023/05/14 09:14:05;;;;;;;;;;;19.90;62.50;;;;;;5071542;28;20003;-31
2023/05/14 09:16:31;;;;;;;;;;;20.00;62.00;;;;;;5071685;28;20356;-30
2023/05/14 09:18:56;;;;;;;;;;;20.00;61.70;;;;;;5071593;28;19915;-30
2023/05/14 09:21:22;;;;;;;;;;;20.10;61.60;;;;;;5071427;28;19963;-30
2023/05/14 09:23:52;;;;;;;;;;;20.10;61.60;;;;;;5071704;28;20069;-30
2023/05/14 09:26:17;;;;;;;;;;;20.10;61.50;;;;;;5071666;28;19913;-32
2023/05/14 09:28:43;;;;;;;;;;;20.20;61.10;;;;;;5071443;28;20284;-31
2023/05/14 09:31:09;;;;;;;;;;;20.20;61.30;;;;;;5070145;28;20315;-32
2023/05/14 09:33:34;;;;;;;;;;;20.30;61.30;;;;;;5071749;28;20463;-32
2023/05/14 09:36:00;;;;;;;;;;;20.40;60.60;;;;;;5071358;28;20376;-31
2023/05/14 09:38:30;;;;;;;;;;;20.40;59.80;;;;;;5071584;28;19909;-31
2023/05/14 09:40:56;;;;;;;;;;;20.40;59.10;;;;;;5071415;28;20011;-31
2023/05/14 09:43:21;;;;;;;;;;;20.40;59.40;;;;;;5071509;28;19915;-33
2023/05/14 09:45:47;;;;;;;;;;;20.50;59.20;;;;;;5071420;28;19912;-30
2023/05/14 09:48:12;;;;;;;;;;;20.60;59.30;;;;;;5071389;28;19915;-33
2023/05/14 09:50:41;;;;;;;;;;;20.70;57.80;;;;;;5071316;28;20315;-33
2023/05/14 09:53:06;;;;;;;;;;;20.70;57.50;;;;;;5071359;28;19970;-33
2023/05/14 09:55:32;;;;;;;;;;;20.70;57.10;;;;;;5071927;28;19908;-31
2023/05/14 09:57:57;;;;;;;;;;;20.80;56.70;;;;;;5071413;28;19952;-31
2023/05/14 10:00:23;;;;;;;;;;;20.90;57.40;;;;;;5070944;28;19916;-32
2023/05/14 10:02:50;;;;;;;;;;;20.90;57.20;;;;;;5069949;28;19947;-30
2023/05/14 10:05:16;;;;;;;;;;;21.10;57.40;;;;;;5071584;28;19912;-33
2023/05/14 10:07:45;;;;;;;;;;;21.10;57.20;;;;;;5071955;28;19955;-31
2023/05/14 10:10:14;;;;;;;;;;;21.20;56.60;;;;;;5074838;28;20011;-30
2023/05/14 10:12:39;;;;;;;;;;;21.20;55.60;;;;;;5074917;28;20279;-35
2023/05/14 10:15:08;;;;;;;;;;;21.30;55.60;;;;;;5074855;28;19919;-31
2023/05/14 10:17:35;;;;;;;;;;;21.30;55.20;;;;;;5074704;28;20352;-35
2023/05/14 10:20:01;;;;;;;;;;;21.40;52.40;;;;;;5074597;28;19913;-32
2023/05/14 10:22:30;;;;;;;;;;;21.40;53.30;;;;;;5074753;28;19923;-32
2023/05/14 10:24:56;;;;;;;;;;;21.40;53.40;;;;;;5074615;28;20319;-31
2023/05/14 10:27:21;;;;;;;;;;;21.60;53.60;;;;;;5074371;28;19923;-32
2023/05/14 10:29:54;;;;;;;;;;;21.70;53.20;;;;;;5074347;28;19921;-33
2023/05/14 10:32:24;;;;;;;;;;;21.70;52.10;;;;;;5074538;28;19909;-30
2023/05/14 10:34:50;;;;;;;;;;;21.80;53.20;;;;;;5074454;28;20118;-32
2023/05/14 10:37:17;;;;;;;;;;;21.90;50.90;;;;;;5074450;28;20321;-31
2023/05/14 10:39:50;;;;;;;;;;;21.90;50.60;;;;;;5074539;28;19908;-30
2023/05/14 10:42:20;;;;;;;;;;;21.90;50.90;;;;;;5074642;28;19999;-31
2023/05/14 10:44:50;;;;;;;;;;;21.90;51.40;;;;;;5074428;28;19966;-31
2023/05/14 10:47:16;;;;;;;;;;;21.90;51.10;;;;;;5074286;28;19960;-30
2023/05/14 10:49:42;;;;;;;;;;;21.80;50.60;;;;;;5074209;28;20296;-32
2023/05/14 10:52:09;;;;;;;;;;;21.80;50.80;;;;;;5074212;28;19909;-32
2023/05/14 10:54:35;;;;;;;;;;;21.70;51.40;;;;;;5074497;28;20335;-30
2023/05/14 10:57:01;;;;;;;;;;;21.70;51.80;;;;;;5074064;28;20331;-32
2023/05/14 10:59:27;;;;;;;;;;;21.70;52.20;;;;;;5074246;28;20081;-34
2023/05/14 11:01:52;;;;;;;;;;;21.80;52.50;;;;;;5073899;28;19912;-35
2023/05/14 11:04:18;;;;;;;;;;;21.80;52.60;;;;;;5074044;28;20288;-30
2023/05/14 11:06:45;;;;;;;;;;;21.80;52.60;;;;;;5074033;28;19915;-34
2023/05/14 11:09:12;;;;;;;;;;;21.80;52.80;;;;;;5073722;28;19908;-30
2023/05/14 11:11:37;;;;;;;;;;;21.80;52.80;;;;;;5073883;28;19989;-29
2023/05/14 11:14:03;;;;;;;;;;;21.80;53.00;;;;;;5073632;28;19939;-30
2023/05/14 11:16:29;;;;;;;;;;;21.80;52.80;;;;;;5073960;28;19915;-33
2023/05/14 11:19:02;;;;;;;;;;;21.90;53.00;;;;;;5073424;28;19934;-44
2023/05/14 11:21:28;;;;;;;;;;;21.80;53.10;;;;;;5073555;28;20292;-26
2023/05/14 11:23:55;;;;;;;;;;;21.90;53.20;;;;;;5073560;28;19916;-26
2023/05/14 11:26:21;;;;;;;;;;;21.90;53.10;;;;;;5073564;28;19944;-27
2023/05/14 11:28:47;;;;;;;;;;;21.90;53.20;;;;;;5073380;28;19921;-27
2023/05/14 11:31:12;;;;;;;;;;;21.90;53.30;;;;;;5073357;28;19908;-27
2023/05/14 11:33:38;;;;;;;;;;;22.00;53.40;;;;;;5073793;28;20373;-26
2023/05/14 11:36:04;;;;;;;;;;;22.00;53.50;;;;;;5073393;28;19915;-26
2023/05/14 11:38:29;;;;;;;;;;;22.00;53.50;;;;;;5071979;28;19954;-27
2023/05/14 11:40:55;;;;;;;;;;;22.00;53.50;;;;;;5073308;28;19916;-29
2023/05/14 11:43:24;;;;;;;;;;;22.10;53.50;;;;;;5073203;28;19909;-29
2023/05/14 11:45:51;;;;;;;;;;;22.10;53.40;;;;;;5073342;28;19958;-27
2023/05/14 11:48:17;;;;;;;;;;;22.10;53.30;;;;;;5073114;28;19909;-30
2023/05/14 11:50:46;;;;;;;;;;;22.20;53.30;;;;;;5073136;28;19916;-30
2023/05/14 11:53:15;;;;;;;;;;;22.30;53.20;;;;;;5073063;28;20256;-33
2023/05/14 11:55:40;;;;;;;;;;;22.40;53.10;;;;;;5073026;28;19966;-28
2023/05/14 11:58:06;;;;;;;;;;;22.40;53.10;;;;;;5072963;28;19963;-27
2023/05/14 12:00:33;;;;;;;;;;;22.60;52.80;;;;;;5073006;28;19912;-45
2023/05/14 12:02:58;;;;;;;;;;;22.70;52.30;;;;;;5072813;28;19916;-46
2023/05/14 12:05:24;;;;;;;;;;;22.80;52.20;;;;;;5072878;28;20288;-42
2023/05/14 12:07:49;;;;;;;;;;;22.90;52.10;;;;;;5072818;28;19908;-49
2023/05/14 12:10:14;;;;;;;;;;;22.90;52.10;;;;;;5072561;28;20346;-43
2023/05/14 12:12:43;;;;;;;;;;;23.00;52.30;;;;;;5072696;28;19909;-44
2023/05/14 12:15:10;;;;;;;;;;;23.00;52.30;;;;;;5072878;28;20326;-43
2023/05/14 12:17:36;;;;;;;;;;;23.00;52.30;;;;;;5072496;28;19948;-45
2023/05/14 12:20:03;;;;;;;;;;;23.10;52.40;;;;;;5072503;28;19913;-41
2023/05/14 12:22:28;;;;;;;;;;;23.10;52.30;;;;;;5072498;28;19908;-44
2023/05/14 12:24:57;;;;;;;;;;;23.20;52.30;;;;;;5072418;28;19941;-37
2023/05/14 12:27:26;;;;;;;;;;;23.20;52.30;;;;;;5072355;28;20046;-37
2023/05/14 12:29:59;;;;;;;;;;;23.30;51.80;;;;;;5071816;28;19929;-37
2023/05/14 12:32:25;;;;;;;;;;;23.30;52.00;;;;;;5072194;28;20275;-38
2023/05/14 12:34:50;;;;;;;;;;;23.30;51.80;;;;;;5072129;28;20003;-39
2023/05/14 12:37:17;;;;;;;;;;;23.30;51.90;;;;;;5072110;28;19944;-38
2023/05/14 12:39:42;;;;;;;;;;;23.30;51.90;;;;;;5072138;28;19908;-37
2023/05/14 12:42:08;;;;;;;;;;;23.40;51.90;;;;;;5072312;28;19908;-38
2023/05/14 12:44:33;;;;;;;;;;;23.50;51.40;;;;;;5071987;28;19909;-37
2023/05/14 12:46:59;;;;;;;;;;;23.60;51.00;;;;;;5072177;28;20265;-37
2023/05/14 12:49:24;;;;;;;;;;;23.80;50.90;;;;;;5072238;28;19974;-37
2023/05/14 12:51:50;;;;;;;;;;;24.00;50.80;;;;;;5072090;28;20011;-38
2023/05/14 12:54:15;;;;;;;;;;;24.10;49.80;;;;;;5072043;28;19913;-37
2023/05/14 12:56:41;;;;;;;;;;;24.30;49.80;;;;;;5072098;28;19908;-36
2023/05/14 12:59:08;;;;;;;;;;;24.40;49.60;;;;;;5071671;28;19909;-39
2023/05/14 13:01:33;;;;;;;;;;;24.50;49.40;;;;;;5071818;28;19931;-36
2023/05/14 13:03:59;;;;;;;;;;;24.70;49.30;;;;;;5071449;28;20360;-38
2023/05/14 13:06:24;;;;;;;;;;;24.70;49.00;;;;;;5071578;28;19909;-36
2023/05/14 13:08:50;;;;;;;;;;;24.90;49.20;;;;;;5071349;28;19908;-37
2023/05/14 13:11:15;;;;;;;;;;;24.90;49.30;;;;;;5071427;28;19912;-38
2023/05/14 13:13:41;;;;;;;;;;;25.00;49.40;;;;;;5071394;28;19962;-38
2023/05/14 13:16:06;;;;;;;;;;;25.00;49.50;;;;;;5071799;28;19909;-38
2023/05/14 13:18:32;;;;;;;;;;;25.10;49.50;;;;;;5071527;28;19940;-38
2023/05/14 13:20:57;;;;;;;;;;;25.10;49.70;;;;;;5071419;28;19923;-38
2023/05/14 13:23:23;;;;;;;;;;;25.10;49.30;;;;;;5071386;28;19912;-37
2023/05/14 13:25:48;;;;;;;;;;;25.00;48.50;;;;;;5071645;28;19912;-38
2023/05/14 13:28:13;;;;;;;;;;;24.90;48.60;;;;;;5071071;28;19912;-38
2023/05/14 13:30:39;;;;;;;;;;;24.90;48.90;;;;;;5071072;28;19920;-47
2023/05/14 13:33:04;;;;;;;;;;;24.80;49.20;;;;;;5071101;28;20351;-36
2023/05/14 13:35:30;;;;;;;;;;;24.80;49.50;;;;;;5071355;28;19962;-38
2023/05/14 13:37:55;;;;;;;;;;;24.70;49.50;;;;;;5071150;28;19912;-37
2023/05/14 13:40:21;;;;;;;;;;;24.70;49.70;;;;;;5069508;28;19912;-38
2023/05/14 13:42:46;;;;;;;;;;;24.70;49.70;;;;;;5073789;28;20411;-38
2023/05/14 13:45:12;;;;;;;;;;;24.70;49.80;;;;;;5075313;28;20261;-37
2023/05/14 13:47:37;;;;;;;;;;;24.70;50.00;;;;;;5075762;28;19908;-38
2023/05/14 13:50:03;;;;;;;;;;;24.70;50.00;;;;;;5075073;28;19915;-37
2023/05/14 13:52:28;;;;;;;;;;;24.60;50.00;;;;;;5075373;28;20356;-38
2023/05/14 13:54:55;;;;;;;;;;;24.50;49.70;;;;;;5074946;28;20247;-37
2023/05/14 13:57:20;;;;;;;;;;;24.50;49.80;;;;;;5074821;28;19909;-38
2023/05/14 13:59:46;;;;;;;;;;;24.30;49.30;;;;;;5075474;28;20317;-37
2023/05/14 14:02:12;;;;;;;;;;;24.20;49.40;;;;;;5075185;28;19908;-36
2023/05/14 14:04:37;;;;;;;;;;;24.10;49.30;;;;;;5075020;28;19915;-38
2023/05/14 14:07:03;;;;;;;;;;;24.10;49.60;;;;;;5074546;28;20334;-38
2023/05/14 14:09:33;;;;;;;;;;;24.00;49.80;;;;;;5074992;28;19909;-38